Time;durP1;ratioP1;P1;durP2;ratioP2;P2;SDS_P1;SDS_P2;PMS_P1;PMS_P2;Temp;Humidity;BMP_temperature;BMP_pressure;BME280_temperature;BME280_humidity;BME280_pressure;Samples;Min_cycle;Max_cycle;Signal;HPM_P1;HPM_P2
2021/12/06 00:02:19;;;;;;;5.67;3.23;;;1.30;99.90;;;;;;5023123;28;20274;-67
2021/12/06 00:05:04;;;;;;;6.33;3.77;;;1.30;99.90;;;;;;5023417;28;20222;-66
2021/12/06 00:07:48;;;;;;;5.37;3.37;;;1.30;99.90;;;;;;5022206;28;20234;-66
2021/12/06 00:10:33;;;;;;;7.03;4.50;;;1.20;99.90;;;;;;5023536;28;20227;-67
2021/12/06 00:13:21;;;;;;;5.80;3.90;;;1.30;99.90;;;;;;5022814;28;20191;-66
2021/12/06 00:16:09;;;;;;;9.47;3.70;;;1.30;99.90;;;;;;5022216;28;20362;-67
2021/12/06 00:18:54;;;;;;;6.00;4.03;;;1.30;99.90;;;;;;5023844;28;20199;-67
2021/12/06 00:21:38;;;;;;;5.40;3.93;;;1.40;99.90;;;;;;5022127;28;20203;-67
2021/12/06 00:24:23;;;;;;;5.53;3.90;;;1.30;99.90;;;;;;5022050;28;20210;-66
2021/12/06 00:27:08;;;;;;;5.17;3.90;;;1.40;99.90;;;;;;5023255;28;20250;-67
2021/12/06 00:29:52;;;;;;;4.07;3.33;;;1.40;99.90;;;;;;5020739;28;20234;-67
2021/12/06 00:32:37;;;;;;;6.30;2.90;;;1.40;99.90;;;;;;5022192;28;20360;-66
2021/12/06 00:35:24;;;;;;;3.83;2.53;;;1.30;99.90;;;;;;5022822;28;20191;-66
2021/12/06 00:38:08;;;;;;;6.03;3.80;;;1.40;99.90;;;;;;5021416;28;20198;-67
2021/12/06 00:40:52;;;;;;;5.33;4.03;;;1.30;99.90;;;;;;5022634;28;20230;-66
2021/12/06 00:43:37;;;;;;;6.00;5.03;;;1.40;99.90;;;;;;5021490;28;20214;-67
2021/12/06 00:46:22;;;;;;;12.50;4.10;;;1.50;99.90;;;;;;5021238;28;20258;-67
2021/12/06 00:49:11;;;;;;;4.60;4.13;;;1.50;99.90;;;;;;5023168;28;20226;-66
2021/12/06 00:51:55;;;;;;;4.87;3.80;;;1.40;99.90;;;;;;5020935;28;20293;-67
2021/12/06 00:54:40;;;;;;;5.47;4.60;;;1.40;99.90;;;;;;5021969;28;20203;-67
2021/12/06 00:57:25;;;;;;;5.60;3.87;;;1.40;99.90;;;;;;5023153;28;20250;-66
2021/12/06 01:00:15;;;;;;;6.43;4.13;;;1.40;99.90;;;;;;5024096;28;20202;-67
2021/12/06 01:03:01;;;;;;;5.20;3.73;;;1.50;99.90;;;;;;5026201;28;20284;-67
2021/12/06 01:05:46;;;;;;;4.17;3.80;;;1.50;99.90;;;;;;5026365;28;20203;-67
2021/12/06 01:08:30;;;;;;;5.43;3.87;;;1.50;99.90;;;;;;5024668;28;20227;-67
2021/12/06 01:11:15;;;;;;;7.53;3.50;;;1.40;99.90;;;;;;5026067;28;20265;-67
2021/12/06 01:13:59;;;;;;;6.90;3.33;;;1.50;99.90;;;;;;5025362;28;20313;-68
2021/12/06 01:16:44;;;;;;;4.37;3.50;;;1.40;99.90;;;;;;5024134;28;20272;-67
2021/12/06 01:19:30;;;;;;;8.47;4.00;;;1.50;99.90;;;;;;5026577;28;20267;-66
2021/12/06 01:25:07;;;;;;;8.47;4.60;;;1.50;99.90;;;;;;5026600;28;20302;-67
2021/12/06 01:39:38;;;;;;;4.90;4.43;;;1.50;99.90;;;;;;5026121;28;20202;-66
2021/12/06 01:42:22;;;;;;;4.10;3.73;;;1.50;99.90;;;;;;5024895;28;20217;-66
2021/12/06 01:45:07;;;;;;;5.90;4.47;;;1.50;99.90;;;;;;5026292;28;20245;-67
2021/12/06 01:47:52;;;;;;;6.47;4.50;;;1.50;99.90;;;;;;5023403;28;20199;-67
2021/12/06 01:50:38;;;;;;;6.13;5.07;;;1.50;99.90;;;;;;5024970;28;20301;-67
2021/12/06 01:53:22;;;;;;;9.87;3.90;;;1.50;99.90;;;;;;5025741;28;20191;-67
2021/12/06 01:56:06;;;;;;;9.23;3.63;;;1.50;99.90;;;;;;5023626;28;20198;-67
2021/12/06 01:58:51;;;;;;;5.43;3.13;;;1.60;99.90;;;;;;5024806;28;20257;-67
2021/12/06 02:01:36;;;;;;;7.77;3.53;;;1.60;99.90;;;;;;5024414;28;20339;-66
2021/12/06 02:08:02;;;;;;;3.83;2.63;;;1.60;99.90;;;;;;5026113;28;20219;-66
2021/12/06 02:10:47;;;;;;;6.47;3.67;;;1.60;99.90;;;;;;5024055;28;20199;-66
2021/12/06 02:13:40;;;;;;;5.33;4.03;;;1.60;99.90;;;;;;5022889;28;20205;-66
2021/12/06 02:16:34;;;;;;;5.87;3.93;;;1.60;99.90;;;;;;5024401;28;20245;-66
2021/12/06 02:19:19;;;;;;;8.03;4.00;;;1.50;99.90;;;;;;5024817;28;20195;-66
2021/12/06 02:22:04;;;;;;;6.03;4.17;;;1.60;99.90;;;;;;5023123;28;20249;-67
2021/12/06 02:24:52;;;;;;;7.77;3.90;;;1.60;99.90;;;;;;5025035;28;20207;-66
2021/12/06 02:27:36;;;;;;;4.97;3.77;;;1.70;99.90;;;;;;5023293;28;20262;-67
2021/12/06 02:30:21;;;;;;;7.50;3.90;;;1.70;99.90;;;;;;5023172;28;20230;-66
2021/12/06 02:33:06;;;;;;;4.30;3.03;;;1.60;99.90;;;;;;5025173;28;20198;-66
2021/12/06 02:35:52;;;;;;;8.40;4.90;;;1.60;99.90;;;;;;5023042;28;20202;-67
2021/12/06 02:38:37;;;;;;;9.13;5.17;;;1.60;99.90;;;;;;5023712;28;20250;-67
2021/12/06 02:41:21;;;;;;;11.50;4.53;;;1.60;99.90;;;;;;5025080;28;20195;-66
2021/12/06 02:44:06;;;;;;;4.70;2.83;;;1.60;99.90;;;;;;5022432;28;20226;-66
2021/12/06 02:46:51;;;;;;;6.97;3.90;;;1.60;99.90;;;;;;5024450;28;20230;-67
2021/12/06 02:49:36;;;;;;;8.90;3.97;;;1.60;99.90;;;;;;5024003;28;20254;-66
2021/12/06 02:52:20;;;;;;;6.87;3.20;;;1.70;99.90;;;;;;5022605;28;20242;-66
2021/12/06 02:55:23;;;;;;;7.47;3.37;;;1.60;99.90;;;;;;5024216;28;20281;-67
2021/12/06 02:58:21;;;;;;;6.03;4.03;;;1.60;99.90;;;;;;5029262;28;20221;-66
2021/12/06 03:01:19;;;;;;;7.17;4.07;;;1.70;99.90;;;;;;5030600;28;20199;-67
2021/12/06 03:04:05;;;;;;;11.27;5.43;;;1.60;99.90;;;;;;5039700;28;20199;-66
2021/12/06 03:06:54;;;;;;;3.73;3.40;;;1.60;99.90;;;;;;5033197;28;20202;-67
2021/12/06 03:09:40;;;;;;;10.60;5.03;;;1.50;99.90;;;;;;5042023;28;20280;-67
2021/12/06 03:12:26;;;;;;;8.90;4.00;;;1.50;99.90;;;;;;5043884;28;20221;-66
2021/12/06 03:15:11;;;;;;;6.07;2.97;;;1.40;99.90;;;;;;5042287;28;20191;-67
2021/12/06 03:17:55;;;;;;;7.83;3.40;;;1.50;99.90;;;;;;5042906;28;20256;-66
2021/12/06 03:20:40;;;;;;;6.10;3.00;;;1.60;99.90;;;;;;5044715;28;20237;-66
2021/12/06 03:23:24;;;;;;;5.43;3.53;;;1.60;99.90;;;;;;5042416;28;20194;-66
2021/12/06 03:26:08;;;;;;;9.57;5.07;;;1.50;99.90;;;;;;5042928;28;20190;-66
2021/12/06 03:28:53;;;;;;;7.20;3.53;;;1.50;99.90;;;;;;5044333;28;20291;-67
2021/12/06 03:31:39;;;;;;;6.73;2.73;;;1.50;99.90;;;;;;5041256;28;20198;-67
2021/12/06 03:34:26;;;;;;;6.00;2.57;;;1.50;99.90;;;;;;5043252;28;20552;-67
2021/12/06 03:37:11;;;;;;;4.03;2.60;;;1.60;99.90;;;;;;5042979;28;20217;-67
2021/12/06 03:39:55;;;;;;;4.17;3.53;;;1.60;99.90;;;;;;5041893;28;20194;-66
2021/12/06 03:42:40;;;;;;;9.13;4.33;;;1.60;99.90;;;;;;5043550;28;20202;-67
2021/12/06 03:45:25;;;;;;;4.67;2.93;;;1.60;99.90;;;;;;5042254;28;20221;-67
2021/12/06 03:48:09;;;;;;;4.87;2.83;;;1.60;99.90;;;;;;5041453;28;20288;-66
2021/12/06 03:50:54;;;;;;;6.80;3.67;;;1.70;99.90;;;;;;5044036;28;20317;-67
2021/12/06 03:53:39;;;;;;;10.00;4.97;;;1.70;99.90;;;;;;5041352;28;20209;-67
2021/12/06 03:56:23;;;;;;;7.50;3.53;;;1.60;99.90;;;;;;5042299;28;20241;-67
2021/12/06 03:59:08;;;;;;;4.63;2.80;;;1.70;99.90;;;;;;5043956;28;20182;-67
2021/12/06 04:01:53;;;;;;;9.00;3.10;;;1.60;99.90;;;;;;5035950;28;20237;-67
2021/12/06 04:04:38;;;;;;;4.67;3.03;;;1.70;99.90;;;;;;5021077;28;20199;-66
2021/12/06 04:07:23;;;;;;;6.67;3.13;;;1.70;99.90;;;;;;5019943;28;20206;-68
2021/12/06 04:10:08;;;;;;;6.07;3.60;;;1.60;99.90;;;;;;5019873;28;20218;-67
2021/12/06 04:12:58;;;;;;;8.37;4.70;;;1.70;99.90;;;;;;5022213;28;20206;-67
2021/12/06 04:15:44;;;;;;;8.87;3.57;;;1.70;99.90;;;;;;5018818;28;20207;-67
2021/12/06 04:18:28;;;;;;;8.60;3.97;;;1.60;99.90;;;;;;5019294;28;20286;-67
2021/12/06 04:21:13;;;;;;;10.40;3.73;;;1.60;99.90;;;;;;5021882;28;20238;-67
2021/12/06 04:23:58;;;;;;;10.17;5.13;;;1.60;99.90;;;;;;5020113;28;20198;-68
2021/12/06 04:26:43;;;;;;;6.93;3.70;;;1.60;99.90;;;;;;5018962;28;20194;-67
2021/12/06 04:29:28;;;;;;;5.93;3.57;;;1.60;99.90;;;;;;5021194;28;20268;-66
2021/12/06 04:32:13;;;;;;;9.27;4.33;;;1.50;99.90;;;;;;5018670;28;20263;-67
2021/12/06 04:34:57;;;;;;;5.17;4.30;;;1.40;99.90;;;;;;5021544;28;20310;-67
2021/12/06 04:37:43;;;;;;;13.27;4.70;;;1.50;99.90;;;;;;5022669;28;20203;-67
2021/12/06 04:40:27;;;;;;;8.37;4.20;;;1.50;99.90;;;;;;5022840;28;20442;-66
2021/12/06 04:43:12;;;;;;;6.60;4.03;;;1.50;99.90;;;;;;5026435;28;20253;-67
2021/12/06 04:45:56;;;;;;;10.13;3.03;;;1.60;99.90;;;;;;5024962;28;20219;-67
2021/12/06 04:48:41;;;;;;;4.73;2.77;;;1.60;99.90;;;;;;5021333;28;20230;-67
2021/12/06 04:51:26;;;;;;;4.40;3.30;;;1.70;99.90;;;;;;5024622;28;20227;-66
2021/12/06 04:54:12;;;;;;;4.53;3.47;;;1.70;99.90;;;;;;5022849;28;20195;-67
2021/12/06 04:57:19;;;;;;;7.63;4.03;;;1.70;99.90;;;;;;5021955;28;20227;-66
2021/12/06 05:00:22;;;;;;;4.37;2.80;;;1.70;99.90;;;;;;5037956;28;20273;-67
2021/12/06 05:03:09;;;;;;;5.90;3.53;;;1.70;99.90;;;;;;5022242;28;20203;-66
2021/12/06 05:06:10;;;;;;;5.23;3.13;;;1.60;99.90;;;;;;5023758;28;20206;-68
2021/12/06 05:08:59;;;;;;;7.80;4.10;;;1.60;99.90;;;;;;5025679;28;20330;-66
2021/12/06 05:11:45;;;;;;;10.67;4.00;;;1.50;99.90;;;;;;5021493;28;20202;-67
2021/12/06 05:14:30;;;;;;;10.07;4.20;;;1.60;99.90;;;;;;5024792;28;20251;-66
2021/12/06 05:17:14;;;;;;;6.23;3.23;;;1.60;99.90;;;;;;5025374;28;20202;-68
2021/12/06 05:19:59;;;;;;;5.00;3.27;;;1.60;99.90;;;;;;5022957;28;20195;-68
2021/12/06 05:22:45;;;;;;;6.70;3.40;;;1.60;99.90;;;;;;5022740;28;20245;-67
2021/12/06 05:25:30;;;;;;;7.40;3.97;;;1.60;99.90;;;;;;5025203;28;20219;-67
2021/12/06 05:28:17;;;;;;;8.53;3.73;;;1.70;99.90;;;;;;5038314;28;20238;-66
2021/12/06 05:31:02;;;;;;;8.90;3.50;;;1.70;99.90;;;;;;5023838;28;20199;-67
2021/12/06 05:33:57;;;;;;;4.67;2.67;;;1.70;99.90;;;;;;5023567;28;20203;-67
2021/12/06 05:36:42;;;;;;;4.63;2.80;;;1.70;99.90;;;;;;5022505;28;20199;-66
2021/12/06 05:39:30;;;;;;;5.23;3.63;;;1.80;99.90;;;;;;5025614;28;20245;-66
2021/12/06 05:42:16;;;;;;;9.47;3.93;;;1.80;99.90;;;;;;5024823;28;20187;-66
2021/12/06 05:45:01;;;;;;;6.60;3.13;;;1.80;99.90;;;;;;5022173;28;20206;-66
2021/12/06 05:47:46;;;;;;;11.47;3.00;;;1.80;99.90;;;;;;5024646;28;20192;-66
2021/12/06 05:50:31;;;;;;;7.90;3.57;;;1.80;99.90;;;;;;5022942;28;20255;-66
2021/12/06 05:53:16;;;;;;;5.33;3.83;;;1.80;99.90;;;;;;5025212;28;20206;-66
2021/12/06 05:56:02;;;;;;;8.97;3.30;;;1.70;99.90;;;;;;5023298;28;20209;-67
2021/12/06 05:58:46;;;;;;;4.87;3.63;;;1.70;99.90;;;;;;5021876;28;20275;-67
2021/12/06 06:01:31;;;;;;;7.27;2.83;;;1.60;99.90;;;;;;5024336;28;20199;-67
2021/12/06 06:04:16;;;;;;;10.93;3.73;;;1.70;99.90;;;;;;5024725;28;20202;-67
2021/12/06 06:07:00;;;;;;;5.37;2.23;;;1.70;99.90;;;;;;5015842;28;20195;-68
2021/12/06 06:09:44;;;;;;;10.50;4.37;;;1.80;99.90;;;;;;5019853;28;20250;-69
2021/12/06 06:12:29;;;;;;;5.60;4.07;;;1.80;99.90;;;;;;5021927;28;20242;-68
2021/12/06 06:15:14;;;;;;;3.87;2.80;;;1.80;99.90;;;;;;5021134;28;20254;-68
2021/12/06 06:18:00;;;;;;;8.53;2.97;;;1.90;99.90;;;;;;5021874;28;20206;-69
2021/12/06 06:20:48;;;;;;;5.23;2.73;;;1.90;99.90;;;;;;5021396;28;20324;-69
2021/12/06 06:23:33;;;;;;;5.47;2.87;;;1.90;99.90;;;;;;5019720;28;20246;-68
2021/12/06 06:26:18;;;;;;;8.77;3.27;;;1.70;99.90;;;;;;5022839;28;20254;-69
2021/12/06 06:29:03;;;;;;;5.60;3.80;;;1.80;99.90;;;;;;5019902;28;20277;-67
2021/12/06 06:31:47;;;;;;;8.43;4.03;;;1.90;99.90;;;;;;5022062;28;20211;-68
2021/12/06 06:34:33;;;;;;;5.77;3.63;;;1.80;99.90;;;;;;5018803;28;20195;-70
2021/12/06 06:37:18;;;;;;;6.17;3.53;;;1.80;99.90;;;;;;5021494;28;20203;-65
2021/12/06 06:40:05;;;;;;;6.10;4.67;;;1.80;99.90;;;;;;5024087;28;20198;-64
2021/12/06 06:42:49;;;;;;;4.20;3.40;;;1.80;99.90;;;;;;5022289;28;20203;-66
2021/12/06 06:45:33;;;;;;;6.67;3.33;;;1.90;99.90;;;;;;5018448;28;20253;-67
2021/12/06 06:48:18;;;;;;;6.53;3.53;;;1.80;99.90;;;;;;5023871;28;20227;-68
2021/12/06 06:51:03;;;;;;;5.57;3.47;;;1.90;99.90;;;;;;5021384;28;20238;-65
2021/12/06 06:53:47;;;;;;;7.80;3.07;;;1.70;99.90;;;;;;5022761;28;20283;-66
2021/12/06 06:56:32;;;;;;;8.43;2.47;;;1.70;99.90;;;;;;5023046;28;20218;-67
2021/12/06 06:59:16;;;;;;;7.00;4.67;;;1.80;99.90;;;;;;5020967;28;20209;-67
2021/12/06 07:02:01;;;;;;;6.30;4.10;;;1.70;99.90;;;;;;5022566;28;20202;-67
2021/12/06 07:04:46;;;;;;;5.60;2.87;;;1.80;99.90;;;;;;5019108;28;20197;-67
2021/12/06 07:07:30;;;;;;;2.50;2.23;;;1.70;99.90;;;;;;5019445;28;20218;-66
2021/12/06 07:10:15;;;;;;;4.43;3.57;;;1.80;99.90;;;;;;5018891;28;20222;-66
2021/12/06 07:13:03;;;;;;;5.33;3.33;;;1.80;99.90;;;;;;5021204;28;20202;-68
2021/12/06 07:15:49;;;;;;;8.00;4.30;;;1.70;99.90;;;;;;5018269;28;20191;-67
2021/12/06 07:18:34;;;;;;;4.90;2.67;;;1.70;99.90;;;;;;5021252;28;20190;-66
2021/12/06 07:21:18;;;;;;;4.17;3.17;;;1.60;99.90;;;;;;5018478;28;20199;-65
2021/12/06 07:24:04;;;;;;;10.40;3.63;;;1.70;99.90;;;;;;5015126;28;20234;-65
2021/12/06 07:26:48;;;;;;;9.93;4.87;;;1.70;99.90;;;;;;5022624;28;20222;-67
2021/12/06 07:29:35;;;;;;;6.33;2.87;;;1.70;99.90;;;;;;5020969;28;20226;-65
2021/12/06 07:32:19;;;;;;;4.57;3.47;;;1.50;99.90;;;;;;5020313;28;20206;-68
2021/12/06 07:35:05;;;;;;;6.03;3.47;;;1.60;99.90;;;;;;5018600;28;20195;-68
2021/12/06 07:37:50;;;;;;;4.90;3.03;;;1.70;99.90;;;;;;5019896;28;20202;-67
2021/12/06 07:40:35;;;;;;;3.90;3.60;;;1.70;99.90;;;;;;5021474;28;20236;-67
2021/12/06 07:43:21;;;;;;;5.13;2.70;;;1.80;99.90;;;;;;5018087;28;20441;-68
2021/12/06 07:46:06;;;;;;;5.67;3.00;;;1.80;99.90;;;;;;5017246;28;20206;-66
2021/12/06 07:48:52;;;;;;;4.47;2.20;;;1.70;99.90;;;;;;5021272;28;20327;-66
2021/12/06 07:51:37;;;;;;;5.43;3.83;;;1.80;99.90;;;;;;5020835;28;20230;-67
2021/12/06 07:54:21;;;;;;;5.40;3.43;;;1.90;99.90;;;;;;5017793;28;20215;-68
2021/12/06 07:57:07;;;;;;;8.60;3.73;;;1.90;99.90;;;;;;5021552;28;20202;-66
2021/12/06 07:59:52;;;;;;;8.53;3.00;;;1.80;99.90;;;;;;5019755;28;20242;-67
2021/12/06 08:02:38;;;;;;;5.87;3.60;;;1.80;99.90;;;;;;5021931;28;20246;-67
2021/12/06 08:05:35;;;;;;;5.80;2.60;;;1.80;99.90;;;;;;5018271;28;20321;-67
2021/12/06 08:08:25;;;;;;;3.03;2.83;;;1.90;99.90;;;;;;5019670;28;20254;-67
2021/12/06 08:11:14;;;;;;;5.47;2.50;;;1.80;99.90;;;;;;5022619;28;20194;-66
2021/12/06 08:13:58;;;;;;;6.63;2.43;;;1.80;99.90;;;;;;5019195;28;20195;-67
2021/12/06 08:16:43;;;;;;;4.17;2.03;;;1.70;99.90;;;;;;5019946;28;20265;-66
2021/12/06 08:19:28;;;;;;;3.47;3.00;;;1.70;99.90;;;;;;5022584;28;20226;-66
2021/12/06 08:22:12;;;;;;;3.10;1.77;;;1.90;99.90;;;;;;5020397;28;20222;-67
2021/12/06 08:24:56;;;;;;;8.90;2.87;;;2.00;99.90;;;;;;5017230;28;20279;-66
2021/12/06 08:27:41;;;;;;;4.17;1.97;;;1.90;99.90;;;;;;5020510;28;20204;-66
2021/12/06 08:30:26;;;;;;;4.83;1.80;;;1.80;99.90;;;;;;5019399;28;20279;-65
2021/12/06 08:33:13;;;;;;;4.80;2.30;;;1.70;99.90;;;;;;5020749;28;20277;-65
2021/12/06 08:35:58;;;;;;;3.67;2.90;;;1.80;99.90;;;;;;5017792;28;20272;-66
2021/12/06 08:38:43;;;;;;;4.57;2.30;;;1.90;99.90;;;;;;5019983;28;20281;-66
2021/12/06 08:41:28;;;;;;;6.33;2.57;;;2.10;99.90;;;;;;5018248;28;20253;-66
2021/12/06 08:44:15;;;;;;;2.00;1.90;;;2.20;99.90;;;;;;5017508;28;20309;-67
2021/12/06 08:47:00;;;;;;;5.10;3.10;;;2.30;99.90;;;;;;5019967;28;20632;-66
2021/12/06 08:49:45;;;;;;;5.80;2.07;;;2.40;99.90;;;;;;5021225;28;20281;-66
2021/12/06 08:52:30;;;;;;;6.23;2.73;;;2.50;99.90;;;;;;5019797;28;20257;-64
2021/12/06 08:55:17;;;;;;;6.20;2.97;;;2.50;99.90;;;;;;5015196;28;20230;-64
2021/12/06 08:58:02;;;;;;;6.07;2.40;;;2.40;99.90;;;;;;5020799;28;20198;-64
2021/12/06 09:00:47;;;;;;;4.43;3.23;;;2.40;99.90;;;;;;5015949;28;20199;-65
2021/12/06 09:03:34;;;;;;;3.53;2.30;;;2.30;99.90;;;;;;5020117;28;20198;-66
2021/12/06 09:06:18;;;;;;;1.53;1.20;;;2.30;99.90;;;;;;5002992;28;20203;-66
2021/12/06 09:09:09;;;;;;;3.27;2.03;;;2.30;99.90;;;;;;5001730;28;20232;-66
2021/12/06 09:11:54;;;;;;;4.30;3.60;;;2.40;99.90;;;;;;5009063;28;20190;-67
2021/12/06 09:14:39;;;;;;;2.80;2.43;;;2.20;99.90;;;;;;5020563;28;20203;-66
2021/12/06 09:17:24;;;;;;;2.90;1.90;;;2.00;99.90;;;;;;5020196;28;20206;-66
2021/12/06 09:20:11;;;;;;;2.40;2.27;;;2.00;99.90;;;;;;5024811;28;20211;-65
2021/12/06 09:22:57;;;;;;;4.50;2.57;;;2.00;99.90;;;;;;5025139;28;20234;-65
2021/12/06 09:25:43;;;;;;;3.47;2.17;;;1.90;99.90;;;;;;5025697;28;20234;-66
2021/12/06 09:28:28;;;;;;;2.43;2.07;;;1.90;99.90;;;;;;5027288;28;20218;-65
2021/12/06 09:31:16;;;;;;;3.50;2.57;;;1.90;99.90;;;;;;5025474;28;20202;-67
2021/12/06 09:34:01;;;;;;;3.57;2.83;;;1.80;99.90;;;;;;5026099;28;20204;-68
2021/12/06 09:36:46;;;;;;;3.77;2.63;;;1.80;99.90;;;;;;5026670;28;20237;-67
2021/12/06 09:39:31;;;;;;;2.83;1.90;;;1.70;99.90;;;;;;5024700;28;20302;-67
2021/12/06 09:42:18;;;;;;;5.50;2.07;;;1.70;99.90;;;;;;5026402;28;20199;-69
2021/12/06 09:45:09;;;;;;;3.23;2.97;;;1.70;99.90;;;;;;5025538;28;20219;-67
2021/12/06 09:47:55;;;;;;;3.30;2.00;;;1.70;99.90;;;;;;5024574;28;20198;-67
2021/12/06 09:50:50;;;;;;;2.40;1.80;;;1.80;99.90;;;;;;5026450;28;20230;-67
2021/12/06 09:53:36;;;;;;;4.30;2.77;;;1.90;99.90;;;;;;5024568;28;20393;-67
2021/12/06 09:56:26;;;;;;;3.37;2.70;;;1.90;99.90;;;;;;5023956;28;20195;-67
2021/12/06 09:59:14;;;;;;;2.67;2.20;;;1.90;99.90;;;;;;5026914;28;20195;-67
2021/12/06 10:02:04;;;;;;;4.60;3.13;;;2.00;99.90;;;;;;5024530;28;20250;-66
2021/12/06 10:04:53;;;;;;;6.20;1.83;;;1.90;99.90;;;;;;5025043;28;20187;-65
2021/12/06 10:07:37;;;;;;;5.17;2.77;;;2.00;99.90;;;;;;5027037;28;20274;-67
2021/12/06 10:10:24;;;;;;;4.50;2.60;;;2.00;99.90;;;;;;5024760;28;20301;-66
2021/12/06 10:13:09;;;;;;;4.50;2.13;;;2.00;99.90;;;;;;5025400;28;20288;-67
2021/12/06 10:15:54;;;;;;;2.27;1.83;;;2.00;99.90;;;;;;5026035;28;20254;-65
2021/12/06 10:18:39;;;;;;;1.70;1.60;;;2.20;99.90;;;;;;5023528;28;20278;-66
2021/12/06 10:21:27;;;;;;;3.03;2.73;;;2.20;99.90;;;;;;5026705;28;20259;-66
2021/12/06 10:24:18;;;;;;;4.03;2.23;;;2.30;99.90;;;;;;5026165;28;20283;-67
2021/12/06 10:27:12;;;;;;;1.87;1.60;;;2.30;99.90;;;;;;5024434;28;20199;-67
2021/12/06 10:30:01;;;;;;;2.00;1.60;;;2.40;99.90;;;;;;5026108;28;20250;-67
2021/12/06 10:32:46;;;;;;;2.57;2.20;;;2.30;99.90;;;;;;5024699;28;20227;-66
2021/12/06 10:35:30;;;;;;;2.50;2.30;;;2.30;99.90;;;;;;5023493;28;20199;-65
2021/12/06 10:38:39;;;;;;;2.03;1.53;;;2.30;99.90;;;;;;5026453;28;20214;-65
2021/12/06 10:41:25;;;;;;;2.47;1.67;;;2.30;99.90;;;;;;5024974;28;20223;-67
2021/12/06 10:44:12;;;;;;;4.67;2.23;;;2.50;99.90;;;;;;5023298;28;20194;-66
2021/12/06 10:46:56;;;;;;;3.53;1.80;;;2.80;99.90;;;;;;5026184;28;20199;-66
2021/12/06 10:49:47;;;;;;;3.83;2.60;;;3.00;99.90;;;;;;5023410;28;20323;-67
2021/12/06 10:52:33;;;;;;;2.40;2.20;;;3.10;99.90;;;;;;5023494;28;20253;-65
2021/12/06 10:55:20;;;;;;;7.73;1.70;;;2.90;99.90;;;;;;5025876;28;20206;-66
2021/12/06 10:58:07;;;;;;;1.93;1.70;;;3.00;99.90;;;;;;5023139;28;20687;-66
2021/12/06 11:01:03;;;;;;;2.43;1.50;;;3.00;99.90;;;;;;5024688;28;20199;-66
2021/12/06 11:03:51;;;;;;;3.27;2.17;;;3.00;99.90;;;;;;5024866;28;20191;-66
2021/12/06 11:06:44;;;;;;;2.10;1.70;;;3.10;99.90;;;;;;5020032;28;20210;-66
2021/12/06 11:09:31;;;;;;;2.40;2.00;;;3.10;99.90;;;;;;5022928;28;20255;-65
2021/12/06 11:12:22;;;;;;;1.60;1.33;;;3.00;99.90;;;;;;5022126;28;20207;-66
2021/12/06 11:15:14;;;;;;;2.90;2.03;;;3.00;99.90;;;;;;5020386;28;20191;-66
2021/12/06 11:18:02;;;;;;;2.50;2.07;;;3.10;99.90;;;;;;5018429;28;20202;-66
2021/12/06 11:20:49;;;;;;;2.57;1.40;;;3.00;99.90;;;;;;5018126;28;20238;-67
2021/12/06 11:23:34;;;;;;;2.10;2.00;;;2.90;99.90;;;;;;5016719;28;20234;-66
2021/12/06 11:26:20;;;;;;;2.53;2.33;;;2.80;99.90;;;;;;5021543;28;20198;-66
2021/12/06 11:29:15;;;;;;;1.57;1.47;;;2.90;99.90;;;;;;5021138;28;20230;-67
2021/12/06 11:32:08;;;;;;;2.33;1.67;;;2.90;99.90;;;;;;5020254;28;20219;-66
2021/12/06 11:35:06;;;;;;;1.60;1.40;;;2.90;99.90;;;;;;5021827;28;20246;-66
2021/12/06 11:37:54;;;;;;;3.20;1.73;;;2.90;99.90;;;;;;5034393;28;20198;-67
2021/12/06 11:40:40;;;;;;;1.40;1.17;;;3.00;99.90;;;;;;5018044;28;20198;-66
2021/12/06 11:43:25;;;;;;;0.87;0.87;;;3.10;99.90;;;;;;5022812;28;20215;-67
2021/12/06 11:46:10;;;;;;;1.63;1.40;;;3.20;99.90;;;;;;5014551;28;20254;-65
2021/12/06 11:48:56;;;;;;;2.93;1.43;;;3.50;99.90;;;;;;5018977;28;20333;-67
2021/12/06 11:51:40;;;;;;;4.00;1.80;;;3.80;99.90;;;;;;5020493;28;20238;-68
2021/12/06 11:54:33;;;;;;;2.07;1.90;;;3.90;99.90;;;;;;5019922;28;20215;-66
2021/12/06 11:57:33;;;;;;;2.50;1.70;;;4.50;99.90;;;;;;5020988;28;20285;-65
2021/12/06 12:00:22;;;;;;;4.97;1.53;;;4.70;99.90;;;;;;5022923;28;20275;-66
2021/12/06 12:03:06;;;;;;;1.93;1.83;;;4.80;99.90;;;;;;5020491;28;20250;-66
2021/12/06 12:05:50;;;;;;;2.17;1.30;;;4.60;99.90;;;;;;5019039;28;20290;-67
2021/12/06 12:08:34;;;;;;;3.03;1.40;;;4.30;99.90;;;;;;5022070;28;20241;-66
2021/12/06 12:11:20;;;;;;;2.80;1.47;;;4.20;99.90;;;;;;5020195;28;20203;-65
2021/12/06 12:14:11;;;;;;;3.13;1.67;;;4.40;99.90;;;;;;5021833;28;20229;-66
2021/12/06 12:16:58;;;;;;;1.30;1.20;;;4.60;99.90;;;;;;5018916;28;20202;-69
2021/12/06 12:19:44;;;;;;;3.37;1.30;;;4.70;99.90;;;;;;5019145;28;20329;-65
2021/12/06 12:22:29;;;;;;;1.47;1.37;;;4.70;99.90;;;;;;5021491;28;20191;-65
2021/12/06 12:25:22;;;;;;;2.20;2.00;;;4.60;99.90;;;;;;5015849;28;20323;-67
2021/12/06 12:28:30;;;;;;;1.90;1.80;;;4.60;99.90;;;;;;5017529;28;20194;-66
2021/12/06 12:31:17;;;;;;;3.87;2.27;;;4.40;99.90;;;;;;5020640;28;20349;-53
2021/12/06 12:34:03;;;;;;;2.47;2.17;;;4.30;99.90;;;;;;5020144;28;20179;-58
2021/12/06 12:36:48;;;;;;;3.30;2.73;;;4.30;99.90;;;;;;5014032;28;20275;-47
2021/12/06 12:39:32;;;;;;;5.13;2.90;;;4.30;99.90;;;;;;5021421;28;20227;-46
2021/12/06 12:42:17;;;;;;;3.23;2.57;;;4.30;99.90;;;;;;5019790;28;20258;-50
2021/12/06 12:45:05;;;;;;;2.50;2.37;;;4.30;99.90;;;;;;5015425;28;20198;-54
2021/12/06 12:47:55;;;;;;;3.13;1.83;;;4.20;99.90;;;;;;5020950;28;20191;-56
2021/12/06 12:50:39;;;;;;;2.20;2.03;;;4.20;99.90;;;;;;5020666;28;20226;-50
2021/12/06 12:53:24;;;;;;;2.43;2.03;;;4.30;99.90;;;;;;5019043;28;20279;-55
2021/12/06 12:56:22;;;;;;;3.37;2.43;;;4.20;99.90;;;;;;5019789;28;20202;-48
2021/12/06 12:59:41;;;;;;;3.07;2.40;;;4.10;99.90;;;;;;5021411;28;20266;-57
2021/12/06 13:02:27;;;;;;;3.53;2.20;;;4.20;99.90;;;;;;5020100;28;20229;-48
2021/12/06 13:05:30;;;;;;;4.83;3.23;;;4.00;99.90;;;;;;5022224;28;20202;-60
2021/12/06 13:08:16;;;;;;;4.50;3.30;;;4.00;99.90;;;;;;5023365;28;20194;-55
2021/12/06 13:11:00;;;;;;;7.27;2.70;;;4.10;99.90;;;;;;5024856;28;20206;-49
2021/12/06 13:13:48;;;;;;;4.33;2.70;;;4.10;99.90;;;;;;5026003;28;20198;-61
2021/12/06 13:19:39;;;;;;;2.60;2.40;;;4.20;99.90;;;;;;5023721;28;20186;-52
2021/12/06 13:22:31;;;;;;;4.53;3.03;;;4.20;99.90;;;;;;5020968;28;20230;-45
2021/12/06 13:25:18;;;;;;;5.07;2.90;;;4.20;99.90;;;;;;5017599;28;20198;-56
2021/12/06 13:28:07;;;;;;;2.97;2.63;;;4.20;99.90;;;;;;5022649;28;20195;-55
2021/12/06 13:30:51;;;;;;;5.00;2.63;;;4.00;99.90;;;;;;5022066;28;20229;-60
2021/12/06 13:33:38;;;;;;;3.97;2.37;;;3.80;99.90;;;;;;5018097;28;20202;-47
2021/12/06 13:36:50;;;;;;;5.27;3.80;;;3.80;99.90;;;;;;5018352;28;20219;-49
2021/12/06 13:39:45;;;;;;;2.77;2.53;;;3.90;99.90;;;;;;5024651;28;20211;-52
2021/12/06 13:42:39;;;;;;;4.20;3.53;;;3.90;99.90;;;;;;5021934;28;20269;-52
2021/12/06 13:45:27;;;;;;;5.40;3.57;;;4.00;99.90;;;;;;5018746;28;20253;-47
2021/12/06 13:48:18;;;;;;;10.10;2.77;;;4.10;99.90;;;;;;5022981;28;20283;-50
2021/12/06 13:51:29;;;;;;;5.63;3.37;;;4.30;99.90;;;;;;5021079;28;20285;-48
2021/12/06 13:54:51;;;;;;;4.37;3.70;;;4.40;99.90;;;;;;5023832;28;20206;-50
2021/12/06 13:57:37;;;;;;;5.00;3.23;;;4.50;99.90;;;;;;5023028;28;20249;-46
2021/12/06 14:00:30;;;;;;;3.23;2.93;;;4.40;99.90;;;;;;5022061;28;20187;-51
2021/12/06 14:03:27;;;;;;;4.43;2.23;;;4.50;99.90;;;;;;5020411;28;20191;-53
2021/12/06 14:06:14;;;;;;;6.10;2.93;;;4.50;99.90;;;;;;5017292;28;20199;-44
2021/12/06 14:09:00;;;;;;;3.70;2.67;;;4.60;99.90;;;;;;5018608;28;20227;-52
2021/12/06 14:11:55;;;;;;;3.20;2.63;;;4.20;99.90;;;;;;5020799;28;20226;-49
2021/12/06 14:14:41;;;;;;;1.93;1.80;;;3.90;99.90;;;;;;5022718;28;20211;-45
2021/12/06 14:17:25;;;;;;;3.07;2.57;;;4.00;99.90;;;;;;5017019;28;20198;-47
2021/12/06 14:20:11;;;;;;;2.17;2.07;;;3.90;99.90;;;;;;5019860;28;20281;-52
2021/12/06 14:22:57;;;;;;;3.10;2.60;;;3.90;99.90;;;;;;5021100;28;20367;-52
2021/12/06 14:25:48;;;;;;;3.13;2.10;;;3.90;99.90;;;;;;5014595;28;20203;-54
2021/12/06 14:28:36;;;;;;;3.93;2.63;;;3.90;99.90;;;;;;5021067;28;20262;-53
2021/12/06 14:31:24;;;;;;;4.20;2.03;;;3.90;99.90;;;;;;5022808;28;20194;-47
2021/12/06 14:34:09;;;;;;;1.83;1.73;;;3.80;99.90;;;;;;5019727;28;20225;-51
2021/12/06 14:36:55;;;;;;;2.07;1.90;;;3.60;99.90;;;;;;5016202;28;20202;-45
2021/12/06 14:39:42;;;;;;;1.50;1.40;;;3.50;99.90;;;;;;5021217;28;20253;-48
2021/12/06 14:42:28;;;;;;;2.67;2.07;;;3.30;99.90;;;;;;5019480;28;20935;-43
2021/12/06 14:45:14;;;;;;;1.50;1.50;;;3.20;99.90;;;;;;5016190;28;20250;-55
2021/12/06 14:48:08;;;;;;;4.17;2.23;;;3.10;99.90;;;;;;5019129;28;20191;-51
2021/12/06 14:59:27;;;;;;;2.13;1.80;;;2.70;99.90;;;;;;5018571;28;20210;-52
2021/12/06 15:02:12;;;;;;;2.07;1.97;;;2.60;99.90;;;;;;5021260;28;20195;-51
2021/12/06 15:05:02;;;;;;;3.77;1.63;;;2.60;99.90;;;;;;5016738;28;20203;-52
2021/12/06 15:07:49;;;;;;;3.37;2.60;;;2.50;99.90;;;;;;5020744;28;20307;-51
2021/12/06 15:10:42;;;;;;;2.73;2.13;;;2.50;99.90;;;;;;5021691;28;20215;-54